Emily, Minnesota
Current Conditions -  °F | °C
As of 6:14 PM on Monday 22 Dec 2014 (Local Time) from KAIT Reporting Station
Light Snow Light Snow  
Wind Chill: 36°   Ceiling: 700
Heat Index: 36°   Visibility: 4mi
Dew Point: 30°   Wind: 3mph
Humidity: 81%   Direction: 70°ENE
Pressure: 29.64"   Gusts: NA
Location:  46.73°N, 93.96°W
Report Text: KAIT 230014Z AUTO 07003KT 4SM -SN OVC007 02/M01 A2964 RMK AO2
Loading
Personal Weather Stations






























Interactive Weather Map New forecast layout! Learn more

10-Day Weather Forecast

Advertisements
Track Severe Weather on mobile